Nome Airport Nome US
ICAO: PAOM
IATA:
Category: Medium
Scheduled Services:

Elevation: 37 ft
TransAlt. 18000 ft.

Airport Communications:
ASOS:119.925
ATIS:119.925
ANCHORAGE CNTR:133.3
CTAF:123.6
RDO:122.45
TWEB:115

PAOM Zoom In..

If you have problems with the map follow the link
https://www.worldairports.se/pages/airport.php?
ICAO=PAOM

Runways:

(A) RW 03 length 5576 ft width 150 ft
---- / hdg 28

(B) RW 10 length 6001 ft width 150 ft
---- / hdg 96

(C) RW 21 length 5576 ft width 150 ft
---- / hdg 208

(D) RW 28 length 6001 ft width 150 ft
ILS 108.70 / hdg 276

Location; PAOM
Day. 19 / Time. 13.11 Zulu
* Altimeter: 29.43
* Temperature: -02° c. -28.4°f.
* Wind from: 020° Speed 03 kn.
Dewpoint: -02° c.
Visibility: 10 Statute Miles.
Clouds: Broken 2200 ft.
Clouds: Broken 2800 ft.
Clouds: Overcast 3800 ft.

PAOM 191311Z AUTO 02003KT 10SM BKN022 BKN028 OVC038 M02/M02 A2943 RMK AO2 T10221022 TSNO


Wind From 020°
Speed 03 kn.

 
 
jpsmedia.com for Web Design worldairports.se 2018   terms of use